Time;durP1;ratioP1;P1;durP2;ratioP2;P2;SDS_P1;SDS_P2;PMS_P1;PMS_P2;Temp;Humidity;BMP_temperature;BMP_pressure;BME280_temperature;BME280_humidity;BME280_pressure;Samples;Min_cycle;Max_cycle;Signal;HPM_P1;HPM_P2
2022/03/16 00:01:39;;;;;;;9.98;3.80;;;;;;;;;;5072213;28;20044;-80
2022/03/16 00:04:07;;;;;;;10.40;4.35;;;;;;;;;;5083126;28;20105;-84
2022/03/16 00:06:36;;;;;;;13.00;4.63;;;;;;;;;;5074041;28;20377;-81
2022/03/16 00:09:04;;;;;;;9.52;3.80;;;;;;;;;;5069666;28;20344;-80
2022/03/16 00:11:33;;;;;;;11.60;4.63;;;;;;;;;;5071159;28;20140;-79
2022/03/16 00:14:01;;;;;;;14.43;3.95;;;;;;;;;;5068481;28;20044;-80
2022/03/16 00:16:31;;;;;;;9.75;3.97;;;;;;;;;;5071749;28;20059;-80
2022/03/16 00:18:59;;;;;;;18.67;4.10;;;;;;;;;;5071343;28;20123;-80
2022/03/16 00:21:28;;;;;;;10.80;3.97;;;;;;;;;;5070611;28;20080;-80
2022/03/16 00:23:56;;;;;;;10.43;4.78;;;;;;;;;;5071490;28;20052;-82
2022/03/16 00:26:25;;;;;;;7.75;3.90;;;;;;;;;;5072138;28;20041;-80
2022/03/16 00:28:53;;;;;;;10.30;5.03;;;;;;;;;;5070890;28;20132;-80
2022/03/16 00:31:22;;;;;;;15.00;4.72;;;;;;;;;;5092503;28;20127;-79
2022/03/16 00:33:51;;;;;;;9.02;4.53;;;;;;;;;;5083648;28;20106;-81
2022/03/16 00:36:21;;;;;;;10.18;4.05;;;;;;;;;;5078292;28;20060;-83
2022/03/16 00:38:49;;;;;;;10.52;4.05;;;;;;;;;;5080034;28;20098;-80
2022/03/16 00:41:18;;;;;;;8.13;5.07;;;;;;;;;;5079017;28;20158;-80
2022/03/16 00:43:46;;;;;;;9.30;4.65;;;;;;;;;;5071998;28;20135;-80
2022/03/16 00:46:14;;;;;;;13.45;5.07;;;;;;;;;;5080532;28;20535;-82
2022/03/16 00:48:43;;;;;;;10.05;5.13;;;;;;;;;;5082867;28;20052;-80
2022/03/16 00:51:13;;;;;;;13.25;5.60;;;;;;;;;;5081329;28;20044;-80
2022/03/16 00:53:41;;;;;;;13.38;6.15;;;;;;;;;;5069206;28;20075;-80
2022/03/16 00:56:10;;;;;;;12.63;6.18;;;;;;;;;;5072699;28;20457;-80
2022/03/16 00:58:38;;;;;;;13.63;5.63;;;;;;;;;;5078483;28;20044;-80
2022/03/16 01:01:08;;;;;;;13.18;6.10;;;;;;;;;;5075007;28;20492;-80
2022/03/16 01:03:40;;;;;;;12.93;6.03;;;;;;;;;;5083618;28;20056;-80
2022/03/16 01:06:15;;;;;;;10.20;5.50;;;;;;;;;;5081391;28;20115;-80
2022/03/16 01:08:45;;;;;;;13.48;5.70;;;;;;;;;;5072418;28;20059;-80
2022/03/16 01:11:14;;;;;;;10.68;5.88;;;;;;;;;;5070274;28;20070;-80
2022/03/16 01:13:42;;;;;;;11.88;6.32;;;;;;;;;;5072417;28;20136;-79
2022/03/16 01:16:12;;;;;;;13.43;6.35;;;;;;;;;;5075450;28;20044;-80
2022/03/16 01:18:41;;;;;;;11.35;6.15;;;;;;;;;;5078875;28;20056;-80
2022/03/16 01:21:09;;;;;;;12.52;6.43;;;;;;;;;;5079050;28;20118;-80
2022/03/16 01:23:38;;;;;;;11.73;6.65;;;;;;;;;;5078818;28;20048;-80
2022/03/16 01:26:08;;;;;;;12.63;6.50;;;;;;;;;;5073916;28;20074;-79
2022/03/16 01:28:37;;;;;;;14.38;7.10;;;;;;;;;;5073535;28;20072;-80
2022/03/16 01:31:08;;;;;;;11.48;6.75;;;;;;;;;;5069097;28;20336;-80
2022/03/16 01:33:36;;;;;;;15.63;7.75;;;;;;;;;;5068900;28;20036;-80
2022/03/16 01:36:07;;;;;;;14.52;6.75;;;;;;;;;;5084652;28;20083;-80
2022/03/16 01:38:36;;;;;;;12.40;7.38;;;;;;;;;;5077695;28;20128;-80
2022/03/16 01:41:05;;;;;;;15.30;7.70;;;;;;;;;;5073134;28;21238;-81
2022/03/16 01:43:35;;;;;;;14.38;7.80;;;;;;;;;;5073650;28;20059;-80
2022/03/16 01:46:07;;;;;;;13.23;7.97;;;;;;;;;;5085947;28;20072;-80
2022/03/16 01:48:36;;;;;;;11.45;7.07;;;;;;;;;;5078474;28;20040;-80
2022/03/16 01:51:07;;;;;;;21.98;7.75;;;;;;;;;;5066797;28;20531;-82
2022/03/16 01:53:35;;;;;;;16.95;7.70;;;;;;;;;;5073400;28;20435;-81
2022/03/16 01:56:07;;;;;;;16.27;8.20;;;;;;;;;;5073484;28;20498;-80
2022/03/16 01:58:36;;;;;;;13.35;7.80;;;;;;;;;;5073219;28;20054;-79
2022/03/16 02:01:07;;;;;;;19.58;8.15;;;;;;;;;;5076007;28;20142;-80
2022/03/16 02:03:36;;;;;;;15.73;7.93;;;;;;;;;;5087550;28;20044;-79
2022/03/16 02:06:07;;;;;;;15.93;8.70;;;;;;;;;;5090256;28;20075;-80
2022/03/16 02:08:37;;;;;;;16.27;8.15;;;;;;;;;;5084187;28;20136;-80
2022/03/16 02:11:05;;;;;;;15.80;8.00;;;;;;;;;;5080491;28;20143;-80
2022/03/16 02:13:34;;;;;;;18.50;9.20;;;;;;;;;;5078316;28;20049;-80
2022/03/16 02:16:08;;;;;;;18.23;9.07;;;;;;;;;;5078115;28;20471;-79
2022/03/16 02:18:37;;;;;;;19.05;7.45;;;;;;;;;;5084976;28;20441;-83
2022/03/16 02:21:07;;;;;;;18.83;8.68;;;;;;;;;;5079563;28;20079;-80
2022/03/16 02:23:37;;;;;;;18.25;9.32;;;;;;;;;;5082696;28;20155;-80
2022/03/16 02:26:06;;;;;;;21.13;9.50;;;;;;;;;;5083762;28;20068;-80
2022/03/16 02:28:34;;;;;;;15.82;9.50;;;;;;;;;;5082625;28;20043;-81
2022/03/16 02:31:06;;;;;;;22.45;9.90;;;;;;;;;;5075926;28;20059;-80
2022/03/16 02:33:34;;;;;;;17.83;9.80;;;;;;;;;;5077342;28;20311;-82
2022/03/16 02:36:06;;;;;;;17.50;8.70;;;;;;;;;;5073639;28;20135;-82
2022/03/16 02:38:34;;;;;;;16.90;8.95;;;;;;;;;;5082463;28;20068;-80
2022/03/16 02:41:06;;;;;;;20.25;10.02;;;;;;;;;;5081169;28;20115;-80
2022/03/16 02:43:34;;;;;;;22.88;9.88;;;;;;;;;;5078550;28;20123;-83
2022/03/16 02:46:05;;;;;;;20.73;10.43;;;;;;;;;;5062681;28;20492;-80
2022/03/16 02:48:34;;;;;;;22.17;10.30;;;;;;;;;;5075290;28;20041;-79
2022/03/16 02:51:04;;;;;;;21.67;10.30;;;;;;;;;;5081891;28;20123;-80
2022/03/16 02:53:33;;;;;;;20.25;9.50;;;;;;;;;;5076723;28;20048;-84
2022/03/16 02:56:01;;;;;;;20.00;9.27;;;;;;;;;;5072128;28;20136;-80
2022/03/16 02:58:33;;;;;;;19.38;9.77;;;;;;;;;;5071073;28;20049;-80
2022/03/16 03:01:03;;;;;;;20.77;10.50;;;;;;;;;;5081214;28;20113;-80
2022/03/16 03:03:33;;;;;;;21.48;11.05;;;;;;;;;;5084414;28;20127;-80
2022/03/16 03:06:03;;;;;;;23.98;11.15;;;;;;;;;;5085671;28;20472;-80
2022/03/16 03:08:32;;;;;;;24.75;10.60;;;;;;;;;;5074090;28;20127;-80
2022/03/16 03:11:00;;;;;;;24.67;10.85;;;;;;;;;;5078137;28;20064;-80
2022/03/16 03:13:32;;;;;;;23.20;10.85;;;;;;;;;;5077765;28;20056;-80
2022/03/16 03:16:00;;;;;;;22.15;10.43;;;;;;;;;;5076694;28;20072;-80
2022/03/16 03:18:31;;;;;;;24.85;11.10;;;;;;;;;;5074919;28;20093;-80
2022/03/16 03:20:59;;;;;;;23.75;10.95;;;;;;;;;;5079960;28;20056;-80
2022/03/16 03:23:27;;;;;;;25.10;11.23;;;;;;;;;;5084265;28;20132;-81
2022/03/16 03:25:56;;;;;;;23.63;10.73;;;;;;;;;;5073510;28;20082;-82
2022/03/16 03:28:24;;;;;;;25.88;10.80;;;;;;;;;;5076354;28;20135;-80
2022/03/16 03:30:53;;;;;;;24.83;10.68;;;;;;;;;;5078548;28;20499;-80
2022/03/16 03:33:22;;;;;;;24.83;10.88;;;;;;;;;;5081687;28;20079;-80
2022/03/16 03:35:50;;;;;;;21.58;10.90;;;;;;;;;;5079258;28;20083;-80
2022/03/16 03:38:19;;;;;;;26.67;11.13;;;;;;;;;;5082817;28;20075;-80
2022/03/16 03:40:47;;;;;;;22.52;10.57;;;;;;;;;;5078281;28;20076;-81
2022/03/16 03:43:16;;;;;;;24.75;11.60;;;;;;;;;;5072149;28;20132;-83
2022/03/16 03:45:44;;;;;;;23.65;10.10;;;;;;;;;;5080716;28;20135;-80
2022/03/16 03:48:14;;;;;;;23.20;11.48;;;;;;;;;;5078571;28;20127;-80
2022/03/16 03:50:42;;;;;;;23.88;9.82;;;;;;;;;;5083731;28;20163;-80
2022/03/16 03:53:10;;;;;;;27.70;11.93;;;;;;;;;;5073902;28;20140;-79
2022/03/16 03:55:38;;;;;;;21.73;10.07;;;;;;;;;;5073292;28;20121;-80
2022/03/16 03:58:07;;;;;;;20.15;9.20;;;;;;;;;;5082301;28;20178;-80
2022/03/16 04:00:35;;;;;;;21.25;9.23;;;;;;;;;;5068400;28;20045;-81
2022/03/16 04:03:03;;;;;;;18.00;8.70;;;;;;;;;;5078869;28;20076;-80
2022/03/16 04:05:33;;;;;;;18.67;9.35;;;;;;;;;;5079804;28;20040;-79
2022/03/16 04:08:01;;;;;;;19.52;9.13;;;;;;;;;;5072159;28;20143;-79
2022/03/16 04:10:30;;;;;;;20.65;9.85;;;;;;;;;;5081964;28;20082;-80
2022/03/16 04:12:58;;;;;;;19.35;9.20;;;;;;;;;;5076384;28;20131;-80
2022/03/16 04:15:26;;;;;;;19.45;9.95;;;;;;;;;;5077857;28;20166;-79
2022/03/16 04:17:55;;;;;;;17.80;8.75;;;;;;;;;;5079734;28;20040;-80
2022/03/16 04:20:23;;;;;;;22.02;9.48;;;;;;;;;;5070870;28;20040;-79
2022/03/16 04:22:53;;;;;;;20.05;9.48;;;;;;;;;;5074583;28;20127;-79
2022/03/16 04:25:21;;;;;;;22.38;9.77;;;;;;;;;;5073129;28;20137;-79
2022/03/16 04:27:49;;;;;;;22.42;10.70;;;;;;;;;;5083191;28;20112;-79
2022/03/16 04:30:18;;;;;;;22.95;9.80;;;;;;;;;;5073727;28;20400;-79
2022/03/16 04:32:51;;;;;;;21.48;10.30;;;;;;;;;;5065519;28;20059;-81
2022/03/16 04:35:20;;;;;;;23.70;10.52;;;;;;;;;;5073793;28;20491;-80
2022/03/16 04:37:49;;;;;;;25.50;11.55;;;;;;;;;;5075360;28;20147;-79
2022/03/16 04:40:18;;;;;;;25.58;10.70;;;;;;;;;;5032613;28;20084;-80
2022/03/16 04:42:47;;;;;;;23.25;10.68;;;;;;;;;;5027751;28;20125;-79
2022/03/16 04:45:15;;;;;;;29.35;12.10;;;;;;;;;;5025207;28;20507;-79
2022/03/16 04:47:43;;;;;;;28.67;11.85;;;;;;;;;;5031422;28;20135;-80
2022/03/16 04:50:12;;;;;;;26.63;11.18;;;;;;;;;;5017754;28;20551;-80
2022/03/16 04:52:44;;;;;;;23.92;11.38;;;;;;;;;;5026119;28;20073;-79
2022/03/16 04:55:12;;;;;;;27.48;11.05;;;;;;;;;;5019935;28;20063;-79
2022/03/16 04:57:42;;;;;;;24.75;12.18;;;;;;;;;;5021525;28;20456;-79
2022/03/16 05:00:12;;;;;;;24.48;11.35;;;;;;;;;;5024936;28;20077;-79
2022/03/16 05:02:41;;;;;;;25.70;10.45;;;;;;;;;;5026408;28;20124;-79
2022/03/16 05:05:10;;;;;;;30.02;11.40;;;;;;;;;;5039360;28;20109;-80
2022/03/16 05:07:39;;;;;;;28.60;11.90;;;;;;;;;;5077763;28;20044;-79
2022/03/16 05:10:09;;;;;;;22.30;10.00;;;;;;;;;;5080952;28;20373;-79
2022/03/16 05:12:38;;;;;;;27.77;11.77;;;;;;;;;;5070473;28;20127;-80
2022/03/16 05:15:10;;;;;;;27.27;11.88;;;;;;;;;;5075949;28;20045;-82
2022/03/16 05:17:39;;;;;;;26.77;11.80;;;;;;;;;;5071073;28;20041;-79
2022/03/16 05:20:08;;;;;;;24.67;10.95;;;;;;;;;;5072138;28;20458;-79
2022/03/16 05:22:41;;;;;;;24.88;10.70;;;;;;;;;;5079771;28;20178;-80
2022/03/16 05:25:10;;;;;;;24.45;11.40;;;;;;;;;;5079147;28;20139;-82
2022/03/16 05:27:38;;;;;;;22.80;10.95;;;;;;;;;;5069693;28;20040;-80
2022/03/16 05:30:09;;;;;;;25.88;11.32;;;;;;;;;;5076250;28;20087;-79
2022/03/16 05:32:41;;;;;;;26.52;11.95;;;;;;;;;;5081945;28;20052;-80
2022/03/16 05:35:10;;;;;;;26.05;11.35;;;;;;;;;;5071654;28;20593;-80
2022/03/16 05:37:38;;;;;;;24.45;10.48;;;;;;;;;;5081126;28;20135;-80
2022/03/16 05:40:08;;;;;;;27.77;11.75;;;;;;;;;;5080239;28;20048;-80
2022/03/16 05:42:36;;;;;;;23.83;10.32;;;;;;;;;;5087487;28;20198;-80
2022/03/16 05:45:05;;;;;;;24.13;11.13;;;;;;;;;;5085567;28;20087;-83
2022/03/16 05:47:36;;;;;;;24.92;11.18;;;;;;;;;;5077139;28;20056;-80
2022/03/16 05:50:05;;;;;;;24.38;11.60;;;;;;;;;;5075183;28;20056;-80
2022/03/16 05:52:36;;;;;;;26.08;10.18;;;;;;;;;;5077574;28;20040;-85
2022/03/16 05:55:07;;;;;;;24.92;11.10;;;;;;;;;;5080204;28;20044;-84
2022/03/16 05:57:37;;;;;;;25.80;11.18;;;;;;;;;;5088737;28;20434;-83
2022/03/16 06:00:06;;;;;;;22.50;10.38;;;;;;;;;;5076184;28;20590;-83
2022/03/16 06:02:36;;;;;;;26.38;11.35;;;;;;;;;;5085328;28;20081;-82
2022/03/16 06:05:05;;;;;;;26.08;11.13;;;;;;;;;;5077814;28;20051;-84
2022/03/16 06:07:33;;;;;;;23.42;11.38;;;;;;;;;;5073442;28;20075;-83
2022/03/16 06:10:01;;;;;;;24.80;10.57;;;;;;;;;;5084481;28;20398;-82
2022/03/16 06:12:29;;;;;;;26.83;10.82;;;;;;;;;;5084920;28;20142;-78
2022/03/16 06:15:00;;;;;;;25.33;10.75;;;;;;;;;;5072348;28;20048;-78
2022/03/16 06:17:28;;;;;;;24.80;10.88;;;;;;;;;;5071322;28;20067;-78
2022/03/16 06:19:58;;;;;;;28.23;11.77;;;;;;;;;;5071545;28;20040;-78
2022/03/16 06:22:27;;;;;;;24.23;11.35;;;;;;;;;;5070041;28;20162;-79
2022/03/16 06:24:55;;;;;;;25.83;10.90;;;;;;;;;;5072631;28;20122;-79
2022/03/16 06:27:23;;;;;;;28.35;12.80;;;;;;;;;;5071534;28;20040;-79
2022/03/16 06:29:52;;;;;;;26.52;11.75;;;;;;;;;;5068443;28;20107;-79
2022/03/16 06:32:23;;;;;;;28.38;10.88;;;;;;;;;;5083255;28;20082;-85
2022/03/16 06:34:51;;;;;;;25.70;10.70;;;;;;;;;;5082809;28;20053;-85
2022/03/16 06:37:21;;;;;;;25.45;11.57;;;;;;;;;;5072512;28;20087;-85
2022/03/16 06:39:49;;;;;;;25.63;11.32;;;;;;;;;;5090488;28;20076;-85
2022/03/16 06:42:20;;;;;;;27.92;11.45;;;;;;;;;;5088341;28;20147;-85
2022/03/16 06:44:48;;;;;;;25.15;10.52;;;;;;;;;;5071433;28;20056;-85
2022/03/16 06:47:17;;;;;;;26.10;11.88;;;;;;;;;;5071729;28;20059;-84
2022/03/16 06:49:46;;;;;;;28.33;12.50;;;;;;;;;;5076402;28;20421;-84
2022/03/16 06:52:14;;;;;;;24.27;10.65;;;;;;;;;;5080995;28;20144;-84
2022/03/16 06:54:44;;;;;;;23.80;10.75;;;;;;;;;;5075004;28;20534;-85
2022/03/16 06:57:12;;;;;;;27.00;11.73;;;;;;;;;;5091916;28;20084;-85
2022/03/16 07:00:00;;;;;;;25.58;11.20;;;;;;;;;;5085010;28;20134;-85
2022/03/16 07:02:28;;;;;;;29.90;11.98;;;;;;;;;;5079424;28;20040;-84
2022/03/16 07:04:58;;;;;;;28.25;11.90;;;;;;;;;;5085210;28;20044;-84
2022/03/16 07:07:26;;;;;;;27.73;11.77;;;;;;;;;;5086647;28;20048;-84
2022/03/16 07:09:56;;;;;;;24.77;11.82;;;;;;;;;;5083053;28;20078;-84
2022/03/16 07:12:29;;;;;;;31.15;13.40;;;;;;;;;;5082462;28;20090;-84
2022/03/16 07:14:58;;;;;;;28.15;12.15;;;;;;;;;;5085819;28;20127;-84
2022/03/16 07:17:26;;;;;;;31.88;12.98;;;;;;;;;;5077799;28;20438;-84
2022/03/16 07:19:55;;;;;;;29.55;13.65;;;;;;;;;;5076490;28;20052;-84
2022/03/16 07:22:23;;;;;;;30.17;12.30;;;;;;;;;;5082392;28;20082;-85
2022/03/16 07:25:13;;;;;;;30.77;12.93;;;;;;;;;;5081643;28;20040;-85
2022/03/16 07:27:42;;;;;;;31.13;13.32;;;;;;;;;;5090844;28;20043;-84
2022/03/16 07:30:11;;;;;;;32.05;13.57;;;;;;;;;;5095516;28;20032;-84
2022/03/16 07:32:41;;;;;;;30.77;12.75;;;;;;;;;;5094269;28;20055;-84
2022/03/16 07:35:10;;;;;;;29.55;12.38;;;;;;;;;;5092765;28;20446;-84
2022/03/16 07:37:39;;;;;;;31.35;13.27;;;;;;;;;;5087965;28;20548;-84
2022/03/16 07:40:08;;;;;;;32.22;13.80;;;;;;;;;;5093767;28;20065;-84
2022/03/16 07:42:39;;;;;;;34.25;13.77;;;;;;;;;;5091994;28;20131;-84
2022/03/16 07:45:11;;;;;;;27.23;11.50;;;;;;;;;;5080926;28;20056;-84
2022/03/16 07:47:40;;;;;;;29.77;13.85;;;;;;;;;;5086826;28;20096;-84
2022/03/16 07:50:09;;;;;;;34.05;14.50;;;;;;;;;;5087109;28;20406;-85
2022/03/16 07:52:38;;;;;;;31.95;13.38;;;;;;;;;;5091800;28;20042;-84
2022/03/16 07:55:08;;;;;;;30.25;13.43;;;;;;;;;;5066623;28;20438;-81
2022/03/16 07:57:36;;;;;;;29.17;12.90;;;;;;;;;;5087525;28;20082;-82
2022/03/16 08:00:10;;;;;;;27.58;13.02;;;;;;;;;;5064942;28;20048;-82
2022/03/16 08:02:40;;;;;;;33.42;13.55;;;;;;;;;;5091360;28;20387;-82
2022/03/16 08:05:09;;;;;;;31.27;12.65;;;;;;;;;;5089527;28;20048;-82
2022/03/16 08:07:38;;;;;;;33.67;13.57;;;;;;;;;;5081031;28;20479;-82
2022/03/16 08:10:07;;;;;;;31.08;13.82;;;;;;;;;;5089427;28;20052;-82
2022/03/16 08:12:36;;;;;;;32.28;14.07;;;;;;;;;;5082201;28;20582;-82
2022/03/16 08:15:06;;;;;;;27.73;12.05;;;;;;;;;;5088236;28;20048;-82
2022/03/16 08:17:36;;;;;;;29.60;13.25;;;;;;;;;;5075169;28;20040;-83
2022/03/16 08:20:07;;;;;;;32.78;14.90;;;;;;;;;;5085313;28;20083;-82
2022/03/16 08:22:36;;;;;;;28.00;12.32;;;;;;;;;;5084216;28;20495;-83
2022/03/16 08:25:07;;;;;;;33.22;13.80;;;;;;;;;;5080239;28;20257;-80
2022/03/16 08:27:36;;;;;;;29.92;12.63;;;;;;;;;;5074987;28;20124;-81
2022/03/16 08:30:08;;;;;;;32.38;13.57;;;;;;;;;;5089164;28;20055;-80
2022/03/16 08:32:38;;;;;;;27.80;12.15;;;;;;;;;;5081924;28;20395;-80
2022/03/16 08:35:07;;;;;;;32.53;13.05;;;;;;;;;;5088337;28;20048;-81
2022/03/16 08:37:38;;;;;;;27.65;11.38;;;;;;;;;;5087811;28;20304;-81
2022/03/16 08:40:07;;;;;;;29.65;12.27;;;;;;;;;;5076798;28;20128;-81
2022/03/16 08:42:36;;;;;;;26.65;12.43;;;;;;;;;;5077196;28;20091;-81
2022/03/16 08:45:05;;;;;;;25.02;10.50;;;;;;;;;;5064074;28;20127;-81
2022/03/16 08:47:34;;;;;;;23.75;11.57;;;;;;;;;;5076554;28;20432;-80
2022/03/16 08:50:06;;;;;;;25.55;11.77;;;;;;;;;;5082176;28;20114;-81
2022/03/16 08:52:35;;;;;;;26.02;11.73;;;;;;;;;;5080085;28;20139;-81
2022/03/16 08:55:05;;;;;;;25.85;11.95;;;;;;;;;;5088600;28;20049;-81
2022/03/16 08:57:38;;;;;;;24.00;10.52;;;;;;;;;;5083735;28;20044;-83
2022/03/16 09:00:07;;;;;;;22.80;10.65;;;;;;;;;;5079506;28;20172;-81
2022/03/16 09:02:36;;;;;;;21.77;10.45;;;;;;;;;;5087532;28;20130;-81
2022/03/16 09:05:08;;;;;;;24.70;11.07;;;;;;;;;;5078044;28;20044;-81
2022/03/16 09:07:38;;;;;;;21.75;10.27;;;;;;;;;;5089368;28;20244;-84
2022/03/16 09:10:08;;;;;;;21.00;10.82;;;;;;;;;;5078664;28;20059;-83
2022/03/16 09:12:37;;;;;;;26.08;11.32;;;;;;;;;;5079093;28;20048;-82
2022/03/16 09:15:06;;;;;;;26.88;11.65;;;;;;;;;;5091369;28;20060;-85
2022/03/16 09:17:36;;;;;;;20.23;10.10;;;;;;;;;;5080404;28;20059;-82
2022/03/16 09:20:07;;;;;;;23.35;11.30;;;;;;;;;;5087113;28;20323;-84
2022/03/16 09:22:36;;;;;;;22.77;11.13;;;;;;;;;;5084481;28;20052;-81
2022/03/16 09:25:07;;;;;;;21.58;10.07;;;;;;;;;;5089733;28;20049;-84
2022/03/16 09:27:36;;;;;;;22.75;9.90;;;;;;;;;;5091439;28;20486;-82
2022/03/16 09:30:05;;;;;;;20.05;9.55;;;;;;;;;;5089816;28;20121;-81
2022/03/16 09:32:34;;;;;;;20.15;9.73;;;;;;;;;;5086700;28;20048;-81
2022/03/16 09:35:06;;;;;;;19.85;10.25;;;;;;;;;;5082334;28;20074;-81
2022/03/16 09:37:36;;;;;;;24.80;10.95;;;;;;;;;;5091712;28;20115;-81
2022/03/16 09:40:06;;;;;;;19.02;8.68;;;;;;;;;;5084739;28;20044;-82
2022/03/16 09:42:34;;;;;;;19.02;9.27;;;;;;;;;;5064471;28;20593;-86
2022/03/16 09:45:03;;;;;;;19.80;9.68;;;;;;;;;;5091164;28;20425;-81
2022/03/16 09:47:32;;;;;;;19.90;10.05;;;;;;;;;;5087476;28;20170;-83
2022/03/16 09:50:02;;;;;;;21.38;9.90;;;;;;;;;;5092706;28;20151;-81
2022/03/16 09:52:31;;;;;;;21.65;9.68;;;;;;;;;;5086126;28;20044;-85
2022/03/16 09:55:05;;;;;;;20.55;10.27;;;;;;;;;;5094192;28;20055;-82
2022/03/16 09:57:33;;;;;;;21.73;10.00;;;;;;;;;;5089017;28;20072;-81
2022/03/16 10:00:02;;;;;;;20.63;10.63;;;;;;;;;;5088334;28;20055;-83
2022/03/16 10:02:31;;;;;;;23.60;10.35;;;;;;;;;;5079501;28;20517;-81
2022/03/16 10:05:00;;;;;;;21.60;9.90;;;;;;;;;;5080189;28;20495;-81
2022/03/16 10:07:29;;;;;;;23.48;10.50;;;;;;;;;;5078993;28;20044;-84
2022/03/16 10:15:31;;;;;;;14.93;8.48;;;;;;;;;;5089348;28;20040;-81
2022/03/16 10:18:02;;;;;;;19.40;9.60;;;;;;;;;;5081419;28;20048;-82
2022/03/16 10:20:32;;;;;;;21.35;9.65;;;;;;;;;;5074985;28;20047;-82
2022/03/16 10:23:03;;;;;;;17.38;8.57;;;;;;;;;;5082278;28;20112;-81
2022/03/16 10:25:33;;;;;;;19.65;9.85;;;;;;;;;;5094372;28;20109;-81
2022/03/16 10:28:11;;;;;;;19.30;9.07;;;;;;;;;;5075075;28;20509;-83
2022/03/16 10:30:41;;;;;;;19.63;9.48;;;;;;;;;;5079569;28;20040;-81
2022/03/16 10:33:09;;;;;;;16.58;8.27;;;;;;;;;;5083566;28;20072;-81
2022/03/16 10:35:39;;;;;;;20.48;9.70;;;;;;;;;;5087395;28;20040;-81
2022/03/16 10:38:12;;;;;;;17.30;8.48;;;;;;;;;;5074679;28;20151;-81
2022/03/16 10:40:41;;;;;;;15.30;8.07;;;;;;;;;;5085275;28;20089;-81
2022/03/16 10:49:02;;;;;;;16.58;9.10;;;;;;;;;;5082828;28;20039;-81
2022/03/16 10:51:31;;;;;;;19.55;8.63;;;;;;;;;;5077924;28;20055;-81
2022/03/16 10:54:19;;;;;;;24.00;10.07;;;;;;;;;;5089862;28;20047;-83
2022/03/16 10:56:49;;;;;;;19.55;9.43;;;;;;;;;;5089617;28;20527;-84
2022/03/16 10:59:19;;;;;;;18.83;8.88;;;;;;;;;;5084871;28;20044;-84
2022/03/16 11:01:49;;;;;;;18.38;8.73;;;;;;;;;;5080648;28;20449;-85
2022/03/16 11:04:20;;;;;;;18.52;8.98;;;;;;;;;;5078503;28;20166;-82
2022/03/16 11:06:50;;;;;;;19.23;9.40;;;;;;;;;;5075122;28;20102;-81
2022/03/16 11:09:18;;;;;;;21.13;9.10;;;;;;;;;;5081381;28;20040;-81
2022/03/16 11:14:34;;;;;;;20.23;9.13;;;;;;;;;;5054631;28;20055;-81
2022/03/16 11:17:03;;;;;;;19.52;9.90;;;;;;;;;;5080221;28;20048;-81
2022/03/16 11:19:32;;;;;;;21.52;10.15;;;;;;;;;;5089651;28;20082;-85
2022/03/16 11:22:04;;;;;;;22.33;10.38;;;;;;;;;;5086014;28;20043;-81
2022/03/16 11:24:34;;;;;;;21.88;10.18;;;;;;;;;;5078148;28;20044;-81
2022/03/16 11:27:13;;;;;;;22.92;10.52;;;;;;;;;;5081327;28;20534;-81
2022/03/16 11:29:48;;;;;;;22.02;10.27;;;;;;;;;;5092956;28;20083;-82
2022/03/16 11:32:17;;;;;;;20.83;10.00;;;;;;;;;;5076156;28;20044;-83
2022/03/16 11:34:50;;;;;;;22.33;10.35;;;;;;;;;;5082196;28;20063;-81
2022/03/16 11:37:19;;;;;;;25.10;12.30;;;;;;;;;;5082887;28;20049;-82
2022/03/16 11:39:49;;;;;;;21.63;10.65;;;;;;;;;;5077605;28;20107;-83
2022/03/16 11:42:19;;;;;;;27.60;10.85;;;;;;;;;;5086643;28;20114;-86
2022/03/16 11:44:48;;;;;;;20.38;10.65;;;;;;;;;;5085373;28;20086;-91
2022/03/16 11:47:35;;;;;;;18.50;9.50;;;;;;;;;;5084062;28;20392;-86
2022/03/16 11:50:13;;;;;;;18.05;8.98;;;;;;;;;;5084509;28;20052;-83
2022/03/16 11:53:00;;;;;;;17.38;9.23;;;;;;;;;;5079444;28;20044;-82
2022/03/16 11:55:41;;;;;;;19.75;10.10;;;;;;;;;;5091756;28;20101;-83
2022/03/16 11:58:26;;;;;;;21.73;9.65;;;;;;;;;;5094520;28;20040;-90
2022/03/16 12:01:09;;;;;;;22.10;11.20;;;;;;;;;;5086922;28;20098;-85
2022/03/16 12:03:45;;;;;;;19.35;10.02;;;;;;;;;;5071323;28;20048;-82
2022/03/16 12:06:13;;;;;;;17.60;9.48;;;;;;;;;;5086966;28;20044;-85
2022/03/16 12:08:52;;;;;;;23.23;10.80;;;;;;;;;;5088676;28;20059;-88
2022/03/16 12:14:07;;;;;;;21.40;10.55;;;;;;;;;;5078082;28;20055;-82
2022/03/16 12:16:41;;;;;;;17.90;9.30;;;;;;;;;;5077574;28;20103;-88
2022/03/16 12:19:30;;;;;;;19.83;10.68;;;;;;;;;;5090766;28;20066;-82
2022/03/16 12:21:59;;;;;;;20.65;10.40;;;;;;;;;;5077381;28;20484;-85
2022/03/16 12:30:08;;;;;;;21.23;10.60;;;;;;;;;;5085859;28;20101;-85
2022/03/16 12:32:36;;;;;;;23.40;11.15;;;;;;;;;;5081730;28;20040;-84
2022/03/16 12:35:06;;;;;;;20.77;9.68;;;;;;;;;;5084021;28;20078;-84
2022/03/16 12:37:36;;;;;;;19.20;10.00;;;;;;;;;;5087919;28;20132;-82
2022/03/16 12:40:10;;;;;;;19.63;10.50;;;;;;;;;;5076645;28;20048;-82
2022/03/16 12:42:38;;;;;;;15.55;8.73;;;;;;;;;;5075457;28;20067;-82
2022/03/16 12:45:09;;;;;;;19.83;10.43;;;;;;;;;;5077197;28;20056;-82
2022/03/16 12:47:41;;;;;;;19.30;10.48;;;;;;;;;;5075416;28;20049;-82
2022/03/16 12:50:16;;;;;;;17.80;10.23;;;;;;;;;;5086169;28;20048;-86
2022/03/16 12:52:50;;;;;;;20.48;10.35;;;;;;;;;;5084981;28;20067;-84
2022/03/16 12:55:19;;;;;;;18.02;10.00;;;;;;;;;;5077813;28;20051;-85
2022/03/16 12:57:56;;;;;;;22.23;10.98;;;;;;;;;;5088584;28;20401;-84
2022/03/16 13:00:32;;;;;;;19.40;10.75;;;;;;;;;;5075718;28;20094;-85
2022/03/16 13:03:13;;;;;;;17.25;9.82;;;;;;;;;;5074571;28;20048;-81
2022/03/16 13:05:43;;;;;;;18.23;10.00;;;;;;;;;;5068053;28;20059;-83
2022/03/16 13:08:12;;;;;;;19.17;10.23;;;;;;;;;;5075547;28;20058;-86
2022/03/16 13:13:28;;;;;;;17.27;10.50;;;;;;;;;;5082883;28;20040;-82
2022/03/16 13:16:01;;;;;;;20.88;12.07;;;;;;;;;;5078534;28;20045;-84
2022/03/16 13:18:32;;;;;;;20.67;10.82;;;;;;;;;;5075301;28;20682;-82
2022/03/16 13:21:05;;;;;;;20.08;10.45;;;;;;;;;;5083142;28;20100;-82
2022/03/16 13:23:34;;;;;;;20.45;11.68;;;;;;;;;;5078293;28;20110;-82
2022/03/16 13:26:10;;;;;;;18.67;10.50;;;;;;;;;;5082846;28;20487;-82
2022/03/16 13:28:39;;;;;;;20.23;10.65;;;;;;;;;;5082920;28;20063;-83
2022/03/16 13:31:08;;;;;;;21.85;11.40;;;;;;;;;;5089866;28;20048;-82
2022/03/16 13:33:36;;;;;;;24.67;11.60;;;;;;;;;;5082674;28;20163;-86
2022/03/16 13:36:14;;;;;;;20.52;11.70;;;;;;;;;;5083381;28;20060;-89
2022/03/16 13:38:49;;;;;;;21.45;10.48;;;;;;;;;;5078088;28;20071;-87
2022/03/16 13:41:17;;;;;;;24.92;11.07;;;;;;;;;;5080848;28;20407;-86
2022/03/16 13:43:47;;;;;;;22.30;12.18;;;;;;;;;;5081015;28;20162;-85
2022/03/16 13:46:16;;;;;;;22.23;11.48;;;;;;;;;;5078725;28;20044;-83
2022/03/16 13:48:45;;;;;;;17.67;10.45;;;;;;;;;;5079464;28;20044;-86
2022/03/16 13:51:15;;;;;;;21.48;11.80;;;;;;;;;;5082115;28;20048;-84
2022/03/16 13:53:47;;;;;;;22.65;12.23;;;;;;;;;;5081413;28;20052;-83
2022/03/16 13:56:17;;;;;;;24.38;12.35;;;;;;;;;;5084483;28;20475;-83
2022/03/16 13:58:49;;;;;;;17.92;10.43;;;;;;;;;;5079813;28;20056;-85
2022/03/16 14:01:21;;;;;;;23.50;12.25;;;;;;;;;;5080901;28;20563;-85
2022/03/16 14:04:03;;;;;;;20.33;11.98;;;;;;;;;;5076186;28;20438;-83
2022/03/16 14:06:38;;;;;;;21.20;11.98;;;;;;;;;;5081923;28;20040;-83
2022/03/16 14:09:14;;;;;;;17.85;10.23;;;;;;;;;;5082109;28;20041;-83
2022/03/16 14:11:46;;;;;;;24.05;11.90;;;;;;;;;;5087085;28;20464;-82
2022/03/16 14:14:16;;;;;;;22.20;11.77;;;;;;;;;;5089638;28;20054;-86
2022/03/16 14:16:49;;;;;;;21.98;11.57;;;;;;;;;;5083916;28;20045;-82
2022/03/16 14:19:26;;;;;;;19.63;11.00;;;;;;;;;;5055641;28;20463;-84
2022/03/16 14:21:59;;;;;;;18.40;11.63;;;;;;;;;;5084238;28;20063;-81
2022/03/16 14:24:28;;;;;;;20.88;11.13;;;;;;;;;;5072963;28;20051;-84
2022/03/16 14:27:15;;;;;;;21.92;11.60;;;;;;;;;;5087077;28;20052;-85
2022/03/16 14:29:47;;;;;;;23.58;12.60;;;;;;;;;;5082811;28;20368;-81
2022/03/16 14:32:16;;;;;;;19.83;10.68;;;;;;;;;;5078088;28;20075;-82
2022/03/16 14:34:44;;;;;;;20.83;11.25;;;;;;;;;;5084520;28;20040;-81
2022/03/16 14:37:14;;;;;;;20.33;10.80;;;;;;;;;;5087439;28;20061;-81
2022/03/16 14:39:44;;;;;;;20.08;12.05;;;;;;;;;;5089007;28;20051;-81
2022/03/16 14:42:13;;;;;;;18.58;10.77;;;;;;;;;;5082738;28;20523;-82
2022/03/16 14:44:42;;;;;;;20.15;11.35;;;;;;;;;;5093281;28;20115;-83
2022/03/16 14:47:11;;;;;;;19.95;11.07;;;;;;;;;;5076861;28;20044;-81
2022/03/16 14:49:40;;;;;;;23.73;12.48;;;;;;;;;;5085998;28;20044;-84
2022/03/16 14:52:09;;;;;;;21.35;10.77;;;;;;;;;;5077863;28;20218;-85
2022/03/16 14:54:41;;;;;;;22.35;12.55;;;;;;;;;;5082628;28;20131;-82
2022/03/16 14:57:10;;;;;;;22.98;12.77;;;;;;;;;;5087453;28;20055;-81
2022/03/16 14:59:40;;;;;;;22.67;13.05;;;;;;;;;;5083514;28;20052;-84
2022/03/16 15:02:08;;;;;;;24.45;13.20;;;;;;;;;;5078428;28;20054;-83
2022/03/16 15:04:38;;;;;;;27.90;13.95;;;;;;;;;;5082774;28;20044;-86